createdAt,value
2022-11-24T00:02:37.458Z,90
2022-11-24T00:12:37.757Z,90
2022-11-24T00:22:37.971Z,90
2022-11-24T00:32:38.420Z,90
2022-11-24T00:42:39.026Z,91
2022-11-24T00:52:39.487Z,91
2022-11-24T01:02:40.061Z,91
2022-11-24T01:12:40.486Z,90
2022-11-24T01:22:40.803Z,90
2022-11-24T01:32:41.624Z,90
2022-11-24T01:42:42.151Z,89
2022-11-24T01:52:42.453Z,89
2022-11-24T02:02:42.709Z,89
2022-11-24T02:12:43.044Z,89
2022-11-24T02:22:43.250Z,89
2022-11-24T02:32:44.215Z,89
2022-11-24T02:42:44.698Z,89
2022-11-24T02:52:44.875Z,89
2022-11-24T03:02:45.151Z,89
2022-11-24T03:12:45.455Z,89
2022-11-24T03:32:46.274Z,89
2022-11-24T03:42:46.996Z,90
2022-11-24T03:52:47.948Z,89
2022-11-24T04:02:48.479Z,89
2022-11-24T04:12:48.637Z,89
2022-11-24T04:22:49.381Z,89
2022-11-24T04:32:50.075Z,89
2022-11-24T04:35:28.443Z,89
2022-11-24T04:42:58.446Z,88
2022-11-24T04:52:58.605Z,91
2022-11-24T05:02:59.375Z,92
2022-11-24T05:12:59.486Z,93
2022-11-24T05:23:00.008Z,92
2022-11-24T05:33:00.870Z,92
2022-11-24T05:43:01.112Z,91
2022-11-24T05:53:01.264Z,91
2022-11-24T06:03:01.797Z,90
2022-11-24T06:13:02.330Z,89
2022-11-24T06:23:02.478Z,89
2022-11-24T06:33:03.274Z,89
2022-11-24T06:43:03.454Z,89
2022-11-24T06:53:04.422Z,88
2022-11-24T07:03:04.949Z,89
2022-11-24T07:13:05.195Z,88
2022-11-24T07:23:05.556Z,88
2022-11-24T07:33:05.652Z,87
2022-11-24T07:43:05.935Z,87
2022-11-24T07:53:06.539Z,86
2022-11-24T08:03:07.570Z,86
2022-11-24T08:13:08.278Z,86
2022-11-24T08:33:08.743Z,88
2022-11-24T08:43:09.409Z,87
2022-11-24T08:53:09.979Z,86
2022-11-24T09:03:10.351Z,86
2022-11-24T09:13:10.873Z,85
2022-11-24T09:23:11.147Z,87
2022-11-24T09:33:11.378Z,88
2022-11-24T09:43:12.235Z,88
2022-11-24T09:53:12.883Z,88
2022-11-24T10:03:13.076Z,88
2022-11-24T10:13:13.483Z,88
2022-11-24T10:23:13.677Z,87
2022-11-24T10:33:14.584Z,89
2022-11-24T10:43:14.856Z,90
2022-11-24T10:53:15.295Z,89
2022-11-24T11:03:16.123Z,88
2022-11-24T11:23:16.873Z,86
2022-11-24T11:43:17.728Z,83
2022-11-24T11:53:18.467Z,84
2022-11-24T12:03:19.392Z,83
2022-11-24T12:13:20.189Z,83
2022-11-24T12:23:20.294Z,82
2022-11-24T12:33:20.802Z,81
2022-11-24T12:43:21.497Z,81
2022-11-24T12:53:21.817Z,81
2022-11-24T13:13:22.904Z,80
2022-11-24T13:23:23.305Z,79
2022-11-24T13:33:27.015Z,79
2022-11-24T13:43:25.111Z,79
2022-11-24T13:53:25.340Z,79
2022-11-24T14:03:25.954Z,78
2022-11-24T14:13:26.614Z,79
2022-11-24T14:23:27.094Z,78
2022-11-24T14:33:27.809Z,78
2022-11-24T14:43:28.169Z,78
2022-11-24T14:53:28.762Z,78
2022-11-24T15:03:29.222Z,79
2022-11-24T15:13:29.956Z,81
2022-11-24T15:23:30.751Z,82
2022-11-24T15:33:31.621Z,83
2022-11-24T15:43:32.053Z,85
2022-11-24T15:53:32.227Z,86
2022-11-24T16:03:46.667Z,86
2022-11-24T16:13:33.176Z,87
2022-11-24T16:23:34.108Z,88
2022-11-24T16:33:34.273Z,89
2022-11-24T16:43:34.869Z,89
2022-11-24T16:53:34.954Z,89
2022-11-24T17:03:35.936Z,90
2022-11-24T17:13:36.722Z,90
2022-11-24T17:23:37.493Z,89
2022-11-24T17:33:38.456Z,88
2022-11-24T17:43:39.211Z,87
2022-11-24T17:53:39.787Z,86
2022-11-24T18:03:39.941Z,85
2022-11-24T18:13:56.394Z,85
2022-11-24T18:23:40.180Z,85
2022-11-24T18:33:41.187Z,84
2022-11-24T18:43:41.740Z,84
2022-11-24T18:53:41.911Z,84
2022-11-24T19:03:47.963Z,84
2022-11-24T19:13:43.659Z,84
2022-11-24T19:23:44.208Z,84
2022-11-24T19:33:44.401Z,84
2022-11-24T19:43:44.681Z,85
2022-11-24T19:53:45.208Z,84
2022-11-24T20:03:45.807Z,84
2022-11-24T20:13:46.361Z,84
2022-11-24T20:23:46.701Z,84
2022-11-24T20:33:46.777Z,85
2022-11-24T20:43:47.564Z,85
2022-11-24T20:53:48.411Z,85
2022-11-24T21:03:49.201Z,85
2022-11-24T21:13:49.913Z,85
2022-11-24T21:23:50.554Z,85
2022-11-24T21:33:51.204Z,85
2022-11-24T21:43:51.616Z,85
2022-11-24T21:53:52.262Z,85
2022-11-24T22:03:53.208Z,86
2022-11-24T22:13:53.837Z,86
2022-11-24T22:23:54.237Z,86
2022-11-24T22:33:54.386Z,86
2022-11-24T22:53:55.553Z,87
2022-11-24T23:03:56.341Z,88
2022-11-24T23:13:56.873Z,88
2022-11-24T23:23:57.940Z,88
2022-11-24T23:33:58.530Z,87
2022-11-24T23:43:59.202Z,87
2022-11-24T23:53:59.863Z,87
